Time;durP1;ratioP1;P1;durP2;ratioP2;P2;SDS_P1;SDS_P2;PMS_P1;PMS_P2;Temp;Humidity;BMP_temperature;BMP_pressure;BME280_temperature;BME280_humidity;BME280_pressure;Samples;Min_cycle;Max_cycle;Signal;HPM_P1;HPM_P2
2021/12/29 00:01:13;;;;;;;63.30;48.83;;;17.80;60.40;;;;;;5043745;27;85766;-76
2021/12/29 00:03:39;;;;;;;62.42;48.75;;;17.80;60.60;;;;;;5041977;27;86471;-75
2021/12/29 00:06:05;;;;;;;60.72;48.50;;;17.80;60.50;;;;;;5035540;27;86910;-75
2021/12/29 00:08:30;;;;;;;61.28;48.28;;;17.80;60.60;;;;;;5035191;27;85931;-75
2021/12/29 00:10:57;;;;;;;63.25;48.63;;;17.80;60.60;;;;;;5037066;27;86394;-75
2021/12/29 00:13:26;;;;;;;61.47;48.45;;;17.80;60.60;;;;;;5037849;27;87145;-75
2021/12/29 00:15:57;;;;;;;62.20;48.75;;;17.80;60.70;;;;;;5034443;27;86155;-75
2021/12/29 00:18:27;;;;;;;62.35;48.63;;;17.80;60.70;;;;;;5041164;27;86051;-75
2021/12/29 00:20:53;;;;;;;61.72;48.50;;;17.80;60.70;;;;;;5025042;27;87321;-75
2021/12/29 00:23:19;;;;;;;61.67;48.85;;;17.80;60.70;;;;;;5043135;27;86002;-75
2021/12/29 00:25:44;;;;;;;62.80;48.75;;;17.70;61.40;;;;;;5022645;27;85796;-75
2021/12/29 00:28:10;;;;;;;61.60;48.40;;;17.70;60.70;;;;;;5040622;27;86086;-75
2021/12/29 00:30:36;;;;;;;61.55;48.65;;;17.70;60.70;;;;;;5053781;27;86069;-75
2021/12/29 00:33:02;;;;;;;63.72;48.65;;;17.70;60.60;;;;;;5035113;27;85180;-75
2021/12/29 00:35:29;;;;;;;61.38;48.45;;;17.70;60.70;;;;;;5040414;27;85488;-75
2021/12/29 00:37:55;;;;;;;63.00;48.38;;;17.70;60.90;;;;;;5021361;27;87870;-75
2021/12/29 00:40:20;;;;;;;60.58;48.25;;;17.70;60.90;;;;;;5025246;27;87011;-75
2021/12/29 00:42:46;;;;;;;62.72;48.65;;;17.70;60.80;;;;;;5026511;27;85646;-75
2021/12/29 00:45:12;;;;;;;62.20;48.55;;;17.70;60.90;;;;;;5050296;27;85513;-75
2021/12/29 00:47:38;;;;;;;61.33;48.30;;;17.60;60.90;;;;;;5028788;27;88448;-75
2021/12/29 00:50:16;;;;;;;62.40;48.00;;;17.60;60.80;;;;;;1684491;27;10106069;-76
2021/12/29 00:52:46;;;;;;;61.30;48.45;;;17.60;60.90;;;;;;3934105;28;10087843;-75
2021/12/29 00:55:17;;;;;;;62.40;48.53;;;17.60;61.00;;;;;;4951742;28;87238;-75
2021/12/29 00:57:45;;;;;;;61.42;48.33;;;17.60;60.80;;;;;;4973248;28;85743;-75
2021/12/29 01:00:15;;;;;;;62.20;48.55;;;17.60;61.00;;;;;;4965343;28;86457;-76
2021/12/29 01:02:41;;;;;;;61.00;48.40;;;17.60;61.00;;;;;;4967237;28;86534;-75
2021/12/29 01:05:08;;;;;;;61.53;48.53;;;17.50;61.10;;;;;;4962903;28;86470;-75
2021/12/29 01:07:34;;;;;;;61.00;48.53;;;17.50;60.90;;;;;;4969170;28;86588;-75
2021/12/29 01:10:00;;;;;;;61.50;48.25;;;17.60;61.00;;;;;;4966300;28;85996;-75
2021/12/29 01:12:27;;;;;;;61.83;48.50;;;17.50;61.00;;;;;;4970293;28;85495;-75
2021/12/29 01:14:55;;;;;;;63.47;48.75;;;17.50;61.10;;;;;;4964491;28;86256;-75
2021/12/29 01:17:23;;;;;;;61.15;48.28;;;17.50;61.00;;;;;;4946179;28;88133;-75
2021/12/29 01:19:51;;;;;;;60.95;48.20;;;17.50;61.10;;;;;;4970139;28;86737;-75
2021/12/29 01:22:16;;;;;;;62.25;48.63;;;17.50;61.10;;;;;;4964649;28;86742;-75
2021/12/29 01:24:45;;;;;;;61.63;48.47;;;17.50;61.10;;;;;;4965486;28;86661;-75
2021/12/29 01:27:12;;;;;;;60.63;48.03;;;17.50;61.00;;;;;;4966642;28;85881;-75
2021/12/29 01:29:37;;;;;;;60.78;48.35;;;17.50;61.20;;;;;;4963843;28;85906;-75
2021/12/29 01:32:03;;;;;;;61.42;48.25;;;17.50;61.20;;;;;;4967284;28;86538;-75
2021/12/29 01:34:29;;;;;;;62.35;48.30;;;17.50;61.90;;;;;;4951554;28;88777;-75
2021/12/29 01:36:55;;;;;;;62.38;48.60;;;17.50;61.20;;;;;;4975699;28;85490;-75
2021/12/29 01:39:21;;;;;;;61.22;48.15;;;17.50;61.20;;;;;;4977867;28;86408;-75
2021/12/29 01:41:49;;;;;;;61.22;48.22;;;17.50;61.30;;;;;;4963021;28;85969;-75
2021/12/29 01:44:16;;;;;;;61.85;48.53;;;17.40;61.20;;;;;;4974978;28;85062;-75
2021/12/29 01:46:45;;;;;;;61.33;48.42;;;17.40;61.10;;;;;;4964470;28;85595;-75
2021/12/29 01:49:11;;;;;;;61.03;48.30;;;17.40;61.30;;;;;;4971209;28;86206;-75
2021/12/29 01:51:47;;;;;;;60.53;48.25;;;17.40;61.30;;;;;;4967415;28;86397;-75
2021/12/29 01:54:23;;;;;;;62.47;48.50;;;17.40;61.40;;;;;;4964768;28;86403;-75
2021/12/29 01:56:51;;;;;;;61.95;48.13;;;17.40;61.30;;;;;;4963446;28;86917;-74
2021/12/29 01:59:17;;;;;;;63.15;48.42;;;17.40;61.30;;;;;;4952402;28;85857;-75
2021/12/29 02:01:43;;;;;;;61.90;48.33;;;17.30;61.40;;;;;;4965248;28;87554;-75
2021/12/29 02:04:09;;;;;;;61.88;48.63;;;17.30;61.40;;;;;;4969326;28;87029;-75
2021/12/29 02:06:35;;;;;;;62.10;48.20;;;17.30;61.40;;;;;;4963678;28;86398;-75
2021/12/29 02:09:02;;;;;;;60.83;48.17;;;17.40;61.40;;;;;;4962570;28;85768;-75
2021/12/29 02:11:30;;;;;;;60.42;48.00;;;17.30;61.40;;;;;;4958270;28;89832;-75
2021/12/29 02:14:02;;;;;;;61.20;48.40;;;17.30;61.40;;;;;;4947603;28;88512;-75
2021/12/29 02:16:28;;;;;;;;;;;17.30;61.40;;;;;;4968327;28;86441;-74
2021/12/29 02:18:56;;;;;;;61.60;48.20;;;17.30;61.40;;;;;;4959668;28;85815;-75
2021/12/29 02:21:24;;;;;;;60.92;48.13;;;17.30;61.40;;;;;;4942864;28;87302;-75
2021/12/29 02:26:39;;;;;;;60.63;48.13;;;17.20;61.40;;;;;;4965133;28;85990;-75
2021/12/29 02:29:09;;;;;;;61.35;48.30;;;17.30;61.70;;;;;;4966105;28;85680;-75
2021/12/29 02:31:36;;;;;;;60.78;48.50;;;17.30;61.50;;;;;;4961582;28;85673;-75
2021/12/29 02:34:04;;;;;;;60.85;48.28;;;17.30;61.60;;;;;;4966116;28;86259;-75
2021/12/29 02:36:30;;;;;;;62.03;48.63;;;17.30;61.70;;;;;;4968629;28;86494;-75
2021/12/29 02:38:57;;;;;;;61.22;48.17;;;17.30;61.60;;;;;;4969377;28;85998;-75
2021/12/29 02:41:25;;;;;;;60.95;48.13;;;17.30;61.60;;;;;;4968100;28;86611;-75
2021/12/29 02:43:58;;;;;;;61.17;48.35;;;17.20;61.60;;;;;;4948402;28;86774;-75
2021/12/29 02:46:25;;;;;;;61.38;48.20;;;17.20;61.50;;;;;;4971796;28;85175;-75
2021/12/29 02:48:56;;;;;;;60.83;48.22;;;17.20;61.60;;;;;;4947264;28;91293;-75
2021/12/29 02:51:22;;;;;;;60.50;48.13;;;17.20;61.60;;;;;;4962559;28;86656;-75
2021/12/29 02:53:47;;;;;;;60.72;48.20;;;17.20;61.60;;;;;;4966167;28;85462;-75
2021/12/29 02:56:13;;;;;;;60.75;48.25;;;17.20;61.60;;;;;;4958436;28;86498;-75
2021/12/29 02:58:39;;;;;;;61.85;48.25;;;17.20;61.60;;;;;;4948641;28;86272;-75
2021/12/29 03:01:09;;;;;;;60.90;48.22;;;17.20;61.60;;;;;;4948649;28;87141;-75
2021/12/29 03:03:37;;;;;;;61.40;47.95;;;17.20;61.70;;;;;;4968902;28;87484;-75
2021/12/29 03:06:04;;;;;;;61.30;48.05;;;17.20;61.70;;;;;;4962264;28;86357;-75
2021/12/29 03:08:30;;;;;;;61.63;48.22;;;17.20;61.70;;;;;;4968447;28;85090;-75
2021/12/29 03:10:56;;;;;;;61.33;48.30;;;17.10;61.80;;;;;;4949073;28;86588;-75
2021/12/29 03:13:24;;;;;;;61.05;48.30;;;17.10;61.70;;;;;;4963407;28;86606;-75
2021/12/29 03:15:50;;;;;;;61.08;48.22;;;17.20;61.80;;;;;;4968443;28;86365;-75
2021/12/29 03:18:17;;;;;;;62.63;48.17;;;17.10;61.80;;;;;;4969145;28;85755;-75
2021/12/29 03:20:43;;;;;;;61.30;47.92;;;17.10;61.80;;;;;;4964079;28;85800;-75
2021/12/29 03:23:09;;;;;;;61.15;48.20;;;17.10;61.80;;;;;;4948840;28;86821;-75
2021/12/29 03:25:35;;;;;;;60.55;48.17;;;17.10;61.80;;;;;;4963088;28;86103;-75
2021/12/29 03:28:01;;;;;;;61.95;48.22;;;17.10;61.90;;;;;;4965559;28;86199;-75
2021/12/29 03:30:29;;;;;;;60.92;48.30;;;17.10;61.90;;;;;;4951352;28;85775;-75
2021/12/29 03:33:03;;;;;;;60.75;48.20;;;17.10;61.40;;;;;;4968389;28;91973;-75
2021/12/29 03:35:31;;;;;;;61.35;48.05;;;17.10;61.90;;;;;;4966825;28;88396;-75
2021/12/29 03:37:57;;;;;;;61.63;48.25;;;17.10;61.80;;;;;;4945193;28;87412;-75
2021/12/29 03:40:24;;;;;;;60.50;47.92;;;17.10;61.90;;;;;;4946408;28;86394;-75
2021/12/29 03:42:50;;;;;;;60.05;48.03;;;17.10;61.90;;;;;;4967147;28;91505;-75
2021/12/29 03:45:15;;;;;;;61.05;48.13;;;17.10;62.00;;;;;;4970438;28;86516;-75
2021/12/29 03:47:41;;;;;;;61.42;48.05;;;17.10;62.00;;;;;;4969476;28;85707;-75
2021/12/29 03:50:07;;;;;;;60.90;48.03;;;17.10;61.90;;;;;;4967895;28;86357;-75
2021/12/29 03:52:33;;;;;;;61.00;47.95;;;17.10;61.90;;;;;;4969058;28;85984;-75
2021/12/29 03:54:58;;;;;;;60.38;48.25;;;17.00;61.90;;;;;;4971105;28;85353;-75
2021/12/29 03:57:24;;;;;;;59.83;47.90;;;17.00;61.90;;;;;;4966643;28;86484;-74
2021/12/29 03:59:49;;;;;;;61.85;48.00;;;17.00;62.00;;;;;;4970628;28;85725;-75
2021/12/29 04:02:15;;;;;;;60.50;48.05;;;17.10;62.00;;;;;;4970802;28;85397;-75
2021/12/29 04:04:41;;;;;;;59.75;47.88;;;17.00;61.90;;;;;;4968837;28;85080;-75
2021/12/29 04:07:06;;;;;;;60.05;48.10;;;17.00;62.00;;;;;;4977229;28;85894;-75
2021/12/29 04:09:32;;;;;;;60.47;48.22;;;17.00;62.00;;;;;;4976462;28;85852;-75
2021/12/29 04:11:58;;;;;;;61.28;48.28;;;17.00;62.10;;;;;;4969413;28;87321;-75
2021/12/29 04:14:26;;;;;;;60.63;47.95;;;17.00;62.10;;;;;;4949390;28;86552;-75
2021/12/29 04:16:54;;;;;;;60.38;48.17;;;17.00;62.00;;;;;;4966773;28;86529;-75
2021/12/29 04:22:08;;;;;;;59.78;48.03;;;17.00;62.10;;;;;;4964267;28;86016;-75
2021/12/29 04:24:36;;;;;;;59.78;47.85;;;17.00;62.10;;;;;;4978738;28;85512;-75
2021/12/29 04:27:05;;;;;;;61.88;47.85;;;17.00;62.10;;;;;;4967303;28;86103;-75
2021/12/29 04:29:32;;;;;;;60.78;47.85;;;17.00;62.10;;;;;;4960203;28;85497;-75
2021/12/29 04:31:57;;;;;;;60.47;47.97;;;17.00;62.20;;;;;;4974370;28;85798;-75
2021/12/29 04:34:23;;;;;;;59.95;47.85;;;16.90;62.20;;;;;;4968333;28;86892;-75
2021/12/29 04:36:48;;;;;;;59.85;48.10;;;16.90;62.20;;;;;;4966501;28;85442;-75
2021/12/29 04:39:14;;;;;;;61.85;48.25;;;16.90;62.30;;;;;;4965102;28;85137;-74
2021/12/29 04:41:40;;;;;;;61.17;47.90;;;16.90;62.40;;;;;;4970573;28;86402;-75
2021/12/29 04:44:05;;;;;;;61.13;48.10;;;16.90;62.40;;;;;;4966741;28;87717;-75
2021/12/29 04:46:44;;;;;;;60.17;48.15;;;16.90;62.40;;;;;;4970371;28;86508;-75
2021/12/29 04:49:12;;;;;;;60.22;47.85;;;16.90;62.50;;;;;;4963067;28;87371;-75
2021/12/29 04:51:47;;;;;;;60.50;48.03;;;16.80;62.50;;;;;;4970879;28;86186;-75
2021/12/29 04:54:12;;;;;;;59.60;47.67;;;16.80;62.50;;;;;;4968095;28;84827;-75
2021/12/29 04:56:38;;;;;;;60.00;47.95;;;16.90;62.50;;;;;;4965871;28;85363;-75
2021/12/29 04:59:04;;;;;;;60.25;47.97;;;16.80;62.50;;;;;;4964287;28;85884;-75
2021/12/29 05:01:31;;;;;;;59.95;47.70;;;16.90;62.50;;;;;;4964273;28;85650;-75
2021/12/29 05:03:56;;;;;;;60.05;47.88;;;16.90;62.50;;;;;;4966767;28;85965;-75
2021/12/29 05:09:06;;;;;;;59.92;47.95;;;17.10;62.40;;;;;;4969282;28;85723;-74
2021/12/29 05:11:32;;;;;;;61.30;48.15;;;17.20;62.90;;;;;;4968125;28;85567;-74
2021/12/29 05:13:58;;;;;;;60.92;48.35;;;17.40;62.00;;;;;;4969812;28;85749;-74
2021/12/29 05:16:28;;;;;;;60.55;48.25;;;17.50;61.60;;;;;;4973658;28;85408;-75
2021/12/29 05:18:56;;;;;;;60.80;48.28;;;17.70;61.30;;;;;;4973285;28;86426;-74
2021/12/29 05:21:22;;;;;;;61.13;48.42;;;17.80;61.00;;;;;;4968843;28;86010;-74
2021/12/29 05:23:48;;;;;;;60.97;48.35;;;17.90;60.60;;;;;;4971888;28;86054;-73
2021/12/29 05:26:14;;;;;;;61.85;48.45;;;18.10;60.50;;;;;;4967936;28;85654;-73
2021/12/29 05:28:39;;;;;;;61.75;48.55;;;18.20;59.90;;;;;;4976342;28;85552;-73
2021/12/29 05:31:05;;;;;;;61.00;48.25;;;18.30;59.90;;;;;;4972891;28;85418;-73
2021/12/29 05:33:31;;;;;;;61.45;48.45;;;18.50;59.80;;;;;;4962618;28;86416;-73
2021/12/29 05:35:57;;;;;;;61.58;48.40;;;18.60;59.40;;;;;;4987232;28;84944;-73
2021/12/29 05:38:23;;;;;;;62.35;48.55;;;18.70;59.10;;;;;;4980431;28;86180;-73
2021/12/29 05:40:51;;;;;;;61.63;48.30;;;18.70;59.60;;;;;;4978603;28;85689;-73
2021/12/29 05:43:17;;;;;;;61.80;48.35;;;18.80;59.10;;;;;;4962490;28;87110;-73
2021/12/29 05:45:43;;;;;;;62.00;48.40;;;18.90;58.90;;;;;;4981196;28;86586;-73
2021/12/29 05:48:08;;;;;;;62.10;48.63;;;18.90;58.80;;;;;;4964763;28;87737;-73
2021/12/29 05:50:34;;;;;;;60.70;48.10;;;18.90;58.70;;;;;;4969052;28;86237;-73
2021/12/29 05:53:00;;;;;;;62.40;48.63;;;18.90;58.60;;;;;;4974406;28;85896;-74
2021/12/29 05:55:27;;;;;;;61.20;48.45;;;19.00;58.40;;;;;;4972876;28;87061;-73
2021/12/29 05:57:53;;;;;;;63.15;48.80;;;19.10;58.20;;;;;;4969733;28;90566;-73
2021/12/29 06:00:22;;;;;;;62.00;48.30;;;19.10;58.00;;;;;;4961601;28;86728;-73
2021/12/29 06:02:49;;;;;;;62.72;48.55;;;19.10;58.40;;;;;;4948231;28;87342;-74
2021/12/29 06:05:15;;;;;;;62.28;48.53;;;19.10;58.00;;;;;;4968589;28;85421;-73
2021/12/29 06:07:40;;;;;;;62.28;48.65;;;19.10;57.90;;;;;;4971274;28;86366;-73
2021/12/29 06:10:08;;;;;;;62.53;48.53;;;19.10;58.00;;;;;;4964032;28;85658;-73
2021/12/29 06:12:33;;;;;;;61.38;48.28;;;19.10;58.00;;;;;;4963907;28;86872;-73
2021/12/29 06:14:59;;;;;;;61.45;48.45;;;19.10;58.10;;;;;;4966424;28;87040;-73
2021/12/29 06:17:25;;;;;;;61.33;48.35;;;19.00;58.00;;;;;;4968627;28;86658;-74
2021/12/29 06:19:50;;;;;;;62.45;48.13;;;19.00;58.20;;;;;;4963888;28;86301;-74
2021/12/29 06:22:16;;;;;;;62.22;48.50;;;18.90;58.20;;;;;;4970300;28;86354;-72
2021/12/29 06:24:42;;;;;;;61.75;48.42;;;18.90;58.30;;;;;;4964533;28;85052;-74
2021/12/29 06:27:09;;;;;;;61.47;48.35;;;18.90;58.30;;;;;;4976867;28;85178;-73
2021/12/29 06:29:35;;;;;;;61.17;48.50;;;18.90;58.40;;;;;;4980189;28;85705;-71
2021/12/29 06:32:01;;;;;;;61.83;48.45;;;18.90;58.30;;;;;;4982206;28;86255;-70
2021/12/29 06:34:29;;;;;;;60.70;48.17;;;18.80;58.30;;;;;;4980709;28;85982;-71
2021/12/29 06:36:55;;;;;;;61.70;48.45;;;18.80;58.50;;;;;;4976418;28;86457;-72
2021/12/29 06:39:20;;;;;;;61.75;48.25;;;18.80;58.60;;;;;;4972234;28;87454;-72
2021/12/29 06:41:46;;;;;;;61.83;48.50;;;18.80;58.60;;;;;;4964677;28;92075;-72
2021/12/29 06:44:12;;;;;;;62.33;48.45;;;18.80;58.60;;;;;;4962719;28;86073;-72
2021/12/29 06:46:37;;;;;;;61.15;48.28;;;18.70;58.60;;;;;;4968897;28;88084;-72
2021/12/29 06:49:03;;;;;;;61.05;48.35;;;18.70;58.60;;;;;;4966486;28;86703;-72
2021/12/29 06:51:29;;;;;;;62.08;48.47;;;18.70;58.70;;;;;;4962580;28;87308;-72
2021/12/29 06:53:55;;;;;;;61.13;48.40;;;18.70;58.70;;;;;;4952194;28;87218;-72
2021/12/29 06:56:20;;;;;;;61.17;48.47;;;18.70;58.70;;;;;;4968011;28;89985;-72
2021/12/29 06:58:46;;;;;;;63.55;48.35;;;18.70;58.70;;;;;;4964786;28;86653;-74
2021/12/29 07:01:13;;;;;;;61.03;48.58;;;18.60;58.70;;;;;;4970982;28;86370;-73
2021/12/29 07:03:39;;;;;;;61.70;48.65;;;18.60;58.90;;;;;;4970733;28;85934;-74
2021/12/29 07:06:04;;;;;;;60.65;48.25;;;18.60;58.80;;;;;;4963479;28;87104;-74
2021/12/29 07:08:30;;;;;;;61.38;48.38;;;18.60;58.80;;;;;;4957440;28;89274;-74
2021/12/29 07:10:56;;;;;;;60.97;48.08;;;18.60;58.90;;;;;;4966458;28;86296;-74
2021/12/29 07:13:22;;;;;;;62.70;48.72;;;18.60;58.90;;;;;;4966321;28;86655;-74
2021/12/29 07:15:47;;;;;;;61.67;48.55;;;18.60;59.00;;;;;;4973714;28;85975;-73
2021/12/29 07:18:14;;;;;;;62.65;48.55;;;18.50;58.90;;;;;;4950549;28;89754;-74
2021/12/29 07:20:40;;;;;;;61.00;48.25;;;18.50;59.10;;;;;;4968491;28;85559;-74
2021/12/29 07:23:06;;;;;;;61.58;48.38;;;18.50;59.10;;;;;;4972706;28;86279;-74
2021/12/29 07:25:32;;;;;;;61.13;48.25;;;18.50;59.20;;;;;;4949484;28;86575;-72
2021/12/29 07:27:57;;;;;;;61.53;48.55;;;18.40;59.10;;;;;;4961745;28;85386;-72
2021/12/29 07:30:23;;;;;;;61.22;48.33;;;18.40;59.30;;;;;;4946769;28;87215;-72
2021/12/29 07:32:49;;;;;;;62.45;48.58;;;18.40;59.30;;;;;;4971908;28;87508;-72
2021/12/29 07:35:15;;;;;;;61.17;48.45;;;18.40;59.30;;;;;;4967170;28;86502;-72
2021/12/29 07:37:41;;;;;;;64.78;48.38;;;18.30;59.40;;;;;;4967661;28;86210;-71
2021/12/29 07:40:08;;;;;;;61.72;48.45;;;18.30;59.50;;;;;;4961696;28;88510;-72
2021/12/29 07:42:36;;;;;;;62.05;48.40;;;18.20;59.50;;;;;;4967973;28;90360;-72
2021/12/29 07:45:06;;;;;;;61.88;48.60;;;18.20;59.60;;;;;;4948205;28;86841;-73
2021/12/29 07:47:32;;;;;;;60.25;48.00;;;18.20;59.70;;;;;;4961599;28;85931;-72
2021/12/29 07:49:58;;;;;;;61.95;48.25;;;18.20;59.90;;;;;;4952849;28;87598;-72
2021/12/29 07:52:23;;;;;;;60.45;48.33;;;18.20;59.80;;;;;;4976514;28;86734;-71
2021/12/29 07:54:49;;;;;;;61.63;48.33;;;18.20;59.80;;;;;;4970651;28;85372;-72
2021/12/29 07:57:14;;;;;;;60.75;48.55;;;18.20;60.00;;;;;;4965891;28;91784;-72
2021/12/29 07:59:40;;;;;;;62.65;48.45;;;18.10;59.90;;;;;;4965971;28;86672;-71
2021/12/29 08:02:10;;;;;;;62.53;48.45;;;18.10;59.90;;;;;;4968993;28;85599;-72
2021/12/29 08:04:36;;;;;;;61.72;48.58;;;18.10;59.90;;;;;;4967170;28;85534;-72
2021/12/29 08:07:02;;;;;;;62.10;48.25;;;18.10;59.80;;;;;;4964273;28;85225;-72
2021/12/29 08:09:27;;;;;;;61.90;48.47;;;18.20;59.90;;;;;;4952812;28;85519;-72
2021/12/29 08:11:53;;;;;;;60.78;48.38;;;18.20;59.80;;;;;;4966806;28;86218;-70
2021/12/29 08:14:19;;;;;;;61.20;48.22;;;18.20;59.70;;;;;;4968450;28;85681;-72
2021/12/29 08:16:44;;;;;;;63.30;48.42;;;18.30;59.70;;;;;;4970962;28;85513;-72
2021/12/29 08:19:10;;;;;;;62.83;48.45;;;18.30;59.60;;;;;;4957054;28;86045;-72
2021/12/29 08:21:36;;;;;;;61.67;48.53;;;18.40;59.50;;;;;;4962280;28;86813;-72
2021/12/29 08:24:01;;;;;;;62.33;48.42;;;18.50;59.50;;;;;;4963589;28;91633;-71
2021/12/29 08:26:27;;;;;;;60.97;48.30;;;18.50;59.30;;;;;;4969268;28;86752;-72
2021/12/29 08:28:57;;;;;;;62.80;48.35;;;18.50;59.20;;;;;;4969378;28;85387;-72
2021/12/29 08:31:23;;;;;;;62.05;48.45;;;18.60;59.20;;;;;;4970923;28;85606;-72
2021/12/29 08:33:48;;;;;;;63.15;48.60;;;18.60;59.10;;;;;;4964644;28;85537;-72
2021/12/29 08:36:14;;;;;;;62.65;48.30;;;18.60;59.10;;;;;;4971667;28;85870;-72
2021/12/29 08:38:39;;;;;;;63.97;48.53;;;18.60;59.00;;;;;;4977280;28;85601;-72
2021/12/29 08:41:05;;;;;;;63.58;48.22;;;18.60;58.90;;;;;;4964907;28;85980;-72
2021/12/29 08:43:32;;;;;;;65.57;48.30;;;18.60;58.90;;;;;;4951752;28;87184;-72
2021/12/29 08:45:58;;;;;;;61.58;48.42;;;18.70;58.90;;;;;;4965505;28;91424;-74
2021/12/29 08:48:24;;;;;;;60.80;48.28;;;18.70;58.90;;;;;;4972844;28;86092;-73
2021/12/29 08:50:50;;;;;;;61.30;48.28;;;18.70;58.80;;;;;;4969450;28;86021;-74
2021/12/29 08:53:15;;;;;;;62.13;48.67;;;18.60;58.80;;;;;;4967696;28;91083;-74
2021/12/29 08:55:46;;;;;;;61.63;48.42;;;18.60;58.90;;;;;;4962927;28;86061;-73
2021/12/29 08:58:14;;;;;;;62.55;48.70;;;18.60;58.90;;;;;;4974206;28;86371;-74
2021/12/29 09:00:40;;;;;;;62.90;48.65;;;18.60;58.90;;;;;;4968717;28;85545;-74
2021/12/29 09:03:06;;;;;;;64.78;48.78;;;18.60;58.90;;;;;;4964635;28;85867;-73
2021/12/29 09:05:32;;;;;;;62.13;48.53;;;18.60;59.00;;;;;;4966391;28;85798;-74
2021/12/29 09:07:58;;;;;;;61.67;48.35;;;18.60;59.00;;;;;;4970530;28;86904;-74
2021/12/29 09:10:24;;;;;;;61.97;48.63;;;18.60;58.90;;;;;;4954688;28;87171;-72
2021/12/29 09:12:52;;;;;;;62.20;48.55;;;18.60;58.90;;;;;;4969928;28;86285;-73
2021/12/29 09:15:19;;;;;;;62.15;48.55;;;18.60;59.00;;;;;;4970254;28;87202;-71
2021/12/29 09:17:48;;;;;;;63.20;48.83;;;18.50;59.10;;;;;;4970423;28;86424;-73
2021/12/29 09:20:24;;;;;;;63.05;48.75;;;18.50;59.20;;;;;;4971237;28;86097;-71
2021/12/29 09:22:51;;;;;;;63.78;48.72;;;18.50;59.30;;;;;;4970061;28;86410;-72
2021/12/29 09:25:18;;;;;;;65.00;49.55;;;18.50;59.40;;;;;;4958512;28;86523;-73
2021/12/29 09:27:47;;;;;;;67.30;49.53;;;18.50;61.30;;;;;;4977962;28;86933;-73
2021/12/29 09:30:13;;;;;;;78.40;49.88;;;18.60;62.00;;;;;;4971774;28;86600;-75
2021/12/29 09:32:39;;;;;;;69.75;50.00;;;18.70;62.30;;;;;;4972375;28;87316;-72
2021/12/29 09:35:06;;;;;;;70.63;49.83;;;18.70;62.40;;;;;;4975168;28;86653;-72
2021/12/29 09:37:31;;;;;;;71.85;50.33;;;18.80;63.10;;;;;;4962292;28;85255;-72
2021/12/29 09:39:58;;;;;;;71.45;50.22;;;18.80;63.30;;;;;;4978325;28;86103;-72
2021/12/29 09:42:23;;;;;;;76.38;49.78;;;18.90;63.60;;;;;;4978407;28;87510;-74
2021/12/29 09:44:51;;;;;;;71.20;50.80;;;18.90;62.70;;;;;;4979301;28;88004;-76
2021/12/29 09:47:18;;;;;;;70.90;50.03;;;18.90;62.20;;;;;;4978189;28;86425;-74
2021/12/29 09:49:43;;;;;;;77.80;50.95;;;18.90;62.40;;;;;;4978114;28;86242;-73
2021/12/29 09:52:09;;;;;;;76.38;50.80;;;18.90;62.40;;;;;;4979100;28;86172;-74
2021/12/29 09:54:35;;;;;;;74.57;50.65;;;18.90;62.20;;;;;;4978584;28;86944;-74
2021/12/29 09:57:03;;;;;;;77.78;50.85;;;19.00;61.90;;;;;;4966202;28;91816;-74
2021/12/29 09:59:28;;;;;;;83.68;50.45;;;19.00;61.70;;;;;;4969512;28;85302;-74
2021/12/29 10:01:55;;;;;;;74.72;51.28;;;19.00;61.40;;;;;;4981738;28;85342;-74
2021/12/29 10:04:21;;;;;;;73.68;50.53;;;19.00;61.10;;;;;;4975140;28;85923;-75
2021/12/29 10:06:47;;;;;;;74.30;50.92;;;19.00;60.90;;;;;;4974462;28;85740;-75
2021/12/29 10:09:15;;;;;;;79.85;51.35;;;19.00;61.70;;;;;;4974585;28;85526;-73
2021/12/29 10:11:42;;;;;;;74.07;50.88;;;19.00;61.10;;;;;;4974308;28;88256;-73
2021/12/29 10:14:15;;;;;;;73.97;50.80;;;19.10;61.20;;;;;;4958071;28;88130;-71
2021/12/29 10:16:45;;;;;;;70.05;50.78;;;19.20;61.00;;;;;;4972649;28;86687;-73
2021/12/29 10:19:13;;;;;;;72.80;50.93;;;19.30;60.60;;;;;;4956735;28;87877;-73
2021/12/29 10:21:48;;;;;;;68.82;50.72;;;19.40;60.30;;;;;;4973152;28;85473;-73
2021/12/29 10:24:18;;;;;;;69.90;51.00;;;19.40;60.10;;;;;;4974801;28;87255;-73
2021/12/29 10:26:46;;;;;;;75.05;50.75;;;19.50;60.00;;;;;;4971434;28;86185;-71
2021/12/29 10:29:16;;;;;;;72.18;50.83;;;19.60;59.70;;;;;;4970787;28;85599;-72
2021/12/29 10:31:45;;;;;;;75.70;50.55;;;19.70;59.50;;;;;;4956312;28;86666;-73
2021/12/29 10:34:14;;;;;;;76.43;51.03;;;19.80;59.10;;;;;;4969287;28;85597;-71
2021/12/29 10:37:08;;;;;;;69.20;50.92;;;19.80;59.00;;;;;;4958343;28;85812;-71
2021/12/29 10:39:36;;;;;;;74.82;51.13;;;19.90;59.10;;;;;;4964931;28;85062;-71
2021/12/29 10:42:09;;;;;;;76.65;51.72;;;20.00;59.00;;;;;;4964297;28;86241;-71
2021/12/29 10:44:37;;;;;;;69.70;51.03;;;20.00;58.80;;;;;;4970619;28;88172;-71
2021/12/29 10:47:14;;;;;;;73.95;51.28;;;20.00;58.70;;;;;;4970126;28;85867;-72
2021/12/29 10:49:51;;;;;;;72.45;50.65;;;20.10;58.70;;;;;;4954975;28;86142;-72
2021/12/29 10:52:34;;;;;;;74.13;51.08;;;20.10;58.50;;;;;;4978731;28;85704;-73
2021/12/29 10:55:01;;;;;;;72.65;51.35;;;20.10;58.40;;;;;;4960621;28;85664;-71
2021/12/29 10:57:27;;;;;;;71.05;51.35;;;20.20;58.70;;;;;;4974722;28;85644;-70
2021/12/29 10:59:59;;;;;;;76.13;52.00;;;20.20;58.80;;;;;;4955791;28;87013;-72
2021/12/29 11:02:31;;;;;;;76.07;51.80;;;20.20;59.00;;;;;;4967257;28;86622;-71
2021/12/29 11:05:00;;;;;;;74.15;51.75;;;20.30;59.10;;;;;;4974501;28;87458;-72
2021/12/29 11:07:31;;;;;;;82.95;51.53;;;20.30;59.10;;;;;;4977705;28;85592;-72
2021/12/29 11:10:19;;;;;;;79.28;51.75;;;20.30;59.10;;;;;;4955934;28;90228;-72
2021/12/29 11:12:53;;;;;;;72.75;51.80;;;20.30;59.30;;;;;;4953820;28;85681;-72
2021/12/29 11:15:24;;;;;;;79.93;51.45;;;20.30;59.40;;;;;;4972161;28;88132;-72
2021/12/29 11:17:51;;;;;;;;;;;20.30;59.40;;;;;;4955550;28;87608;-73
2021/12/29 11:20:25;;;;;;;72.72;51.65;;;20.20;59.20;;;;;;4979333;28;84529;-72
2021/12/29 11:23:02;;;;;;;73.18;51.42;;;20.20;59.40;;;;;;4977485;28;86816;-73
2021/12/29 11:25:31;;;;;;;71.57;51.30;;;20.30;59.80;;;;;;4974982;28;88336;-70
2021/12/29 11:27:56;;;;;;;74.82;51.70;;;20.20;60.20;;;;;;4954091;28;87772;-72
2021/12/29 11:30:22;;;;;;;76.10;51.45;;;20.30;59.80;;;;;;4972576;28;86828;-72
2021/12/29 11:32:49;;;;;;;73.20;51.42;;;20.30;59.40;;;;;;4967195;28;85670;-72
2021/12/29 11:35:17;;;;;;;71.55;51.28;;;20.30;59.30;;;;;;4961758;28;88965;-72
2021/12/29 11:37:47;;;;;;;68.82;51.05;;;20.20;59.00;;;;;;4976805;28;85482;-72
2021/12/29 11:40:17;;;;;;;74.13;51.17;;;20.20;59.00;;;;;;4969100;28;87456;-72
2021/12/29 11:42:43;;;;;;;69.97;50.95;;;20.20;58.90;;;;;;4973881;28;87470;-72
2021/12/29 11:45:11;;;;;;;74.05;51.60;;;20.10;58.80;;;;;;4960151;28;87042;-71
2021/12/29 11:47:37;;;;;;;72.85;51.13;;;20.10;58.90;;;;;;4965181;28;86720;-72
2021/12/29 11:50:05;;;;;;;69.80;50.95;;;20.10;58.70;;;;;;4971165;28;85677;-72
2021/12/29 11:52:50;;;;;;;72.18;51.60;;;20.00;58.90;;;;;;4973180;28;86115;-71
2021/12/29 11:55:19;;;;;;;75.88;51.33;;;20.10;59.00;;;;;;4967634;28;86049;-72
2021/12/29 11:57:45;;;;;;;70.88;50.72;;;20.00;58.90;;;;;;4974084;28;85937;-72
2021/12/29 12:00:21;;;;;;;71.18;51.05;;;20.00;59.00;;;;;;4972779;28;85084;-72
2021/12/29 12:02:49;;;;;;;70.07;50.63;;;20.10;59.00;;;;;;4972154;28;85697;-73
2021/12/29 12:05:22;;;;;;;75.38;51.00;;;20.00;59.30;;;;;;4973149;28;89582;-72
2021/12/29 12:07:49;;;;;;;76.55;51.38;;;20.00;59.30;;;;;;4967406;28;86395;-71
2021/12/29 12:10:33;;;;;;;74.82;51.28;;;20.00;59.20;;;;;;4974697;28;86006;-73
2021/12/29 12:12:59;;;;;;;74.15;51.05;;;19.90;59.30;;;;;;4966317;28;87966;-72
2021/12/29 12:15:33;;;;;;;73.40;50.65;;;19.90;59.50;;;;;;4966275;28;90998;-73
2021/12/29 12:18:06;;;;;;;74.88;50.72;;;19.90;59.50;;;;;;4969589;28;88119;-73
2021/12/29 12:20:47;;;;;;;70.03;50.55;;;19.80;59.60;;;;;;4978442;28;85677;-73
2021/12/29 12:23:26;;;;;;;73.25;51.20;;;19.80;59.70;;;;;;4975482;28;86630;-73
2021/12/29 12:25:53;;;;;;;72.50;50.45;;;19.70;59.70;;;;;;4957417;28;88353;-74
2021/12/29 12:28:23;;;;;;;68.28;50.65;;;19.80;59.60;;;;;;4960821;28;86592;-74
2021/12/29 12:30:53;;;;;;;74.33;50.77;;;19.70;59.50;;;;;;4979332;28;86052;-73
2021/12/29 12:33:29;;;;;;;69.60;50.55;;;19.70;59.50;;;;;;4972924;28;85957;-74
2021/12/29 12:36:05;;;;;;;67.28;50.55;;;19.70;59.40;;;;;;4977153;28;87040;-74
2021/12/29 12:38:35;;;;;;;67.10;50.30;;;19.70;59.40;;;;;;4965840;28;87627;-73